Time;durP1;ratioP1;P1;durP2;ratioP2;P2;SDS_P1;SDS_P2;PMS_P1;PMS_P2;Temp;Humidity;BMP_temperature;BMP_pressure;BME280_temperature;BME280_humidity;BME280_pressure;Samples;Min_cycle;Max_cycle;Signal;HPM_P1;HPM_P2
2023/03/01 00:00:00;;;;;;;21.48;11.15;;;-4.50;99.90;;;;;;2081683;28;20532;-64
2023/03/01 00:01:11;;;;;;;22.85;11.73;;;-4.50;99.90;;;;;;2084827;28;20298;-65
2023/03/01 00:02:17;;;;;;;19.90;11.02;;;-4.50;99.90;;;;;;2081425;28;20180;-66
2023/03/01 00:03:23;;;;;;;20.40;10.77;;;-4.50;99.90;;;;;;2084850;28;20172;-62
2023/03/01 00:04:29;;;;;;;19.05;11.23;;;-4.50;99.90;;;;;;2084890;28;20219;-63
2023/03/01 00:05:35;;;;;;;21.75;11.60;;;-4.60;99.90;;;;;;2085697;28;20184;-62
2023/03/01 00:06:45;;;;;;;21.23;11.18;;;-4.50;99.90;;;;;;2085334;28;20218;-61
2023/03/01 00:07:53;;;;;;;24.17;11.98;;;-4.50;99.90;;;;;;2081588;28;20204;-62
2023/03/01 00:08:59;;;;;;;22.67;11.02;;;-4.60;99.90;;;;;;2084771;28;20284;-62
2023/03/01 00:10:05;;;;;;;19.63;10.55;;;-4.60;99.90;;;;;;2085177;28;20654;-62
2023/03/01 00:11:23;;;;;;;21.13;11.65;;;-4.60;99.90;;;;;;2085483;28;20291;-61
2023/03/01 00:12:29;;;;;;;22.67;11.82;;;-4.60;99.90;;;;;;2081234;28;20926;-62
2023/03/01 00:13:35;;;;;;;20.10;11.43;;;-4.70;99.90;;;;;;2084805;28;20188;-62
2023/03/01 00:14:41;;;;;;;20.17;10.85;;;-4.70;99.90;;;;;;2084199;28;20206;-62
2023/03/01 00:15:47;;;;;;;21.08;11.35;;;-4.70;99.90;;;;;;2084715;28;20255;-62
2023/03/01 00:16:52;;;;;;;23.85;12.85;;;-4.70;99.90;;;;;;2085384;28;20212;-63
2023/03/01 00:17:58;;;;;;;18.92;10.95;;;-4.80;99.90;;;;;;2084763;28;20180;-61
2023/03/01 00:19:05;;;;;;;21.48;11.70;;;-4.80;99.90;;;;;;2084741;28;20686;-63
2023/03/01 00:20:10;;;;;;;21.33;12.23;;;-4.80;99.90;;;;;;2087375;28;20197;-64
2023/03/01 00:21:17;;;;;;;20.35;10.80;;;-4.70;99.90;;;;;;2083541;28;20182;-61
2023/03/01 00:22:22;;;;;;;20.80;10.73;;;-4.80;99.90;;;;;;2082534;28;20766;-62
2023/03/01 00:23:28;;;;;;;18.90;10.00;;;-4.80;99.90;;;;;;2084574;28;20658;-61
2023/03/01 00:24:33;;;;;;;20.13;11.27;;;-4.80;99.90;;;;;;2081506;28;20202;-62
2023/03/01 00:25:42;;;;;;;26.55;12.05;;;-4.80;99.90;;;;;;2068044;28;20190;-61
2023/03/01 00:26:46;;;;;;;24.05;12.38;;;-4.80;99.90;;;;;;2069846;28;20252;-62
2023/03/01 00:27:52;;;;;;;24.38;12.48;;;-4.80;99.90;;;;;;2084915;28;20680;-61
2023/03/01 00:28:58;;;;;;;21.75;11.95;;;-4.80;99.90;;;;;;2085397;28;20688;-64
2023/03/01 00:30:04;;;;;;;24.02;11.77;;;-4.80;99.90;;;;;;2080887;28;20180;-63
2023/03/01 00:31:07;;;;;;;24.42;11.90;;;-4.80;99.90;;;;;;2084611;28;20211;-63
2023/03/01 00:32:09;;;;;;;17.90;10.18;;;-4.80;99.90;;;;;;2083922;28;21189;-63
2023/03/01 00:33:15;;;;;;;20.33;10.35;;;-4.90;99.90;;;;;;2084123;28;20189;-62
2023/03/01 00:34:20;;;;;;;24.17;11.55;;;-4.90;99.90;;;;;;2085313;28;20193;-64
2023/03/01 00:35:26;;;;;;;24.05;12.57;;;-4.80;99.90;;;;;;2085156;28;20192;-63
2023/03/01 00:36:35;;;;;;;19.33;11.30;;;-4.90;99.90;;;;;;2084796;28;20203;-63
2023/03/01 00:37:38;;;;;;;21.65;11.40;;;-4.90;99.90;;;;;;2075518;28;20267;-62
2023/03/01 00:38:45;;;;;;;21.10;11.35;;;-4.90;99.90;;;;;;2076707;28;20184;-63
2023/03/01 00:39:49;;;;;;;23.10;12.30;;;-4.90;99.90;;;;;;2080930;28;20279;-62
2023/03/01 00:40:55;;;;;;;22.52;11.60;;;-4.90;99.90;;;;;;2084324;28;20218;-63
2023/03/01 00:42:00;;;;;;;21.73;12.18;;;-4.90;99.90;;;;;;2084437;28;20190;-61
2023/03/01 00:43:04;;;;;;;22.45;11.57;;;-4.90;99.90;;;;;;2081054;28;20231;-63
2023/03/01 00:44:10;;;;;;;23.02;11.82;;;-4.90;99.90;;;;;;2084484;28;20665;-61
2023/03/01 00:45:15;;;;;;;20.13;10.45;;;-4.90;99.90;;;;;;2084434;28;20268;-61
2023/03/01 00:46:24;;;;;;;20.00;11.02;;;-4.90;99.90;;;;;;2081187;28;20723;-62
2023/03/01 00:47:29;;;;;;;23.80;11.15;;;-4.90;99.90;;;;;;2084598;28;20187;-62
2023/03/01 00:48:34;;;;;;;25.58;13.15;;;-5.00;99.90;;;;;;2075749;28;20195;-62
2023/03/01 00:49:40;;;;;;;25.35;13.00;;;-4.90;99.90;;;;;;2076039;28;20244;-63
2023/03/01 00:50:45;;;;;;;24.50;12.30;;;-4.90;99.90;;;;;;2082613;28;20204;-61
2023/03/01 00:51:50;;;;;;;25.02;12.25;;;-5.00;99.90;;;;;;2080927;28;20188;-63
2023/03/01 00:52:56;;;;;;;24.13;11.25;;;-5.00;99.90;;;;;;2085029;28;20184;-62
2023/03/01 00:54:02;;;;;;;24.55;11.63;;;-4.90;99.90;;;;;;2089003;28;20633;-62
2023/03/01 00:55:06;;;;;;;21.35;11.13;;;-4.90;99.90;;;;;;2072205;28;20189;-62
2023/03/01 00:56:12;;;;;;;23.33;12.10;;;-4.90;99.90;;;;;;2068245;28;20185;-62
2023/03/01 00:57:15;;;;;;;21.55;11.23;;;-4.90;99.90;;;;;;2077169;28;20256;-62
2023/03/01 00:58:21;;;;;;;23.23;12.35;;;-4.80;99.90;;;;;;2071846;28;20185;-62
2023/03/01 00:59:26;;;;;;;20.33;11.45;;;-4.90;99.90;;;;;;2076545;28;20189;-61
2023/03/01 01:00:31;;;;;;;22.70;12.02;;;-4.90;99.90;;;;;;2084413;28;20177;-63
2023/03/01 01:01:37;;;;;;;25.17;12.60;;;-4.90;99.90;;;;;;2081396;28;20188;-62
2023/03/01 01:02:43;;;;;;;22.45;13.07;;;-4.90;99.90;;;;;;2084390;28;20564;-60
2023/03/01 01:03:59;;;;;;;22.65;11.75;;;-4.90;99.90;;;;;;2084784;28;20197;-62
2023/03/01 01:05:05;;;;;;;25.55;12.60;;;-4.90;99.90;;;;;;2083355;28;20176;-63
2023/03/01 01:06:23;;;;;;;23.38;12.75;;;-5.00;99.90;;;;;;2086676;28;20264;-64
2023/03/01 01:07:28;;;;;;;20.83;11.50;;;-4.90;99.90;;;;;;2077875;28;20197;-62
2023/03/01 01:08:34;;;;;;;25.65;12.10;;;-4.90;99.90;;;;;;2075587;28;20835;-63
2023/03/01 01:09:40;;;;;;;25.27;12.43;;;-4.90;99.90;;;;;;2086329;28;20219;-62
2023/03/01 01:10:47;;;;;;;22.10;12.20;;;-4.90;99.90;;;;;;2086099;28;20213;-61
2023/03/01 01:11:53;;;;;;;29.55;12.90;;;-4.90;99.90;;;;;;2086812;28;20189;-62
2023/03/01 01:12:58;;;;;;;20.88;11.55;;;-4.90;99.90;;;;;;2086672;28;20196;-61
2023/03/01 01:14:04;;;;;;;25.45;12.32;;;-4.90;99.90;;;;;;2086048;28;20562;-61
2023/03/01 01:15:12;;;;;;;20.63;10.82;;;-4.90;99.90;;;;;;2085906;28;20224;-63
2023/03/01 01:16:21;;;;;;;20.75;11.70;;;-4.80;99.90;;;;;;2086027;28;20195;-61
2023/03/01 01:17:26;;;;;;;21.98;11.48;;;-4.80;99.90;;;;;;2083071;28;20188;-62
2023/03/01 01:18:32;;;;;;;23.55;12.68;;;-4.70;99.90;;;;;;2086058;28;20194;-61
2023/03/01 01:19:38;;;;;;;24.92;11.95;;;-4.80;99.90;;;;;;2077739;28;20265;-62
2023/03/01 01:20:44;;;;;;;26.90;11.75;;;-4.60;99.90;;;;;;2079301;28;20213;-62
2023/03/01 01:21:50;;;;;;;21.25;11.52;;;-4.60;99.90;;;;;;2086697;28;20623;-61
2023/03/01 01:22:56;;;;;;;19.58;10.95;;;-4.50;99.90;;;;;;2073965;28;20186;-62
2023/03/01 01:24:03;;;;;;;20.33;11.68;;;-4.60;99.90;;;;;;2078724;28;20229;-60
2023/03/01 01:25:05;;;;;;;23.05;11.05;;;-4.50;99.90;;;;;;2085943;28;20252;-62
2023/03/01 01:26:20;;;;;;;20.85;10.90;;;-4.50;99.90;;;;;;2082462;28;20488;-62
2023/03/01 01:27:26;;;;;;;22.33;11.38;;;-4.50;99.90;;;;;;2086170;28;20706;-60
2023/03/01 01:28:32;;;;;;;18.02;10.55;;;-4.40;99.90;;;;;;2082821;28;20272;-61
2023/03/01 01:29:37;;;;;;;20.65;11.38;;;-4.30;99.90;;;;;;2086209;28;20189;-62
2023/03/01 01:30:43;;;;;;;19.85;10.25;;;-4.20;99.90;;;;;;2086190;28;20207;-62
2023/03/01 01:31:49;;;;;;;19.98;10.60;;;-4.20;99.90;;;;;;2077779;28;20210;-62
2023/03/01 01:32:54;;;;;;;22.13;10.98;;;-4.20;99.90;;;;;;2079069;28;20189;-64
2023/03/01 01:34:02;;;;;;;18.33;10.70;;;-4.20;99.90;;;;;;2085858;28;20692;-62
2023/03/01 01:35:05;;;;;;;20.08;10.63;;;-4.20;99.90;;;;;;2085128;28;20181;-62
2023/03/01 01:36:10;;;;;;;20.75;11.43;;;-4.20;99.90;;;;;;2085088;28;20312;-62
2023/03/01 01:37:15;;;;;;;20.42;10.75;;;-4.20;99.90;;;;;;2081983;28;20213;-61
2023/03/01 01:38:21;;;;;;;18.63;10.73;;;-4.10;99.90;;;;;;2085641;28;20235;-63
2023/03/01 01:39:27;;;;;;;19.65;10.05;;;-4.10;99.90;;;;;;2076798;28;20190;-62
2023/03/01 01:40:33;;;;;;;19.00;11.40;;;-4.20;99.90;;;;;;2074071;28;20197;-62
2023/03/01 01:41:42;;;;;;;19.00;10.35;;;-4.20;99.90;;;;;;2085934;28;20178;-60
2023/03/01 01:42:47;;;;;;;19.30;10.07;;;-4.10;99.90;;;;;;2077209;28;20192;-62
2023/03/01 01:44:23;;;;;;;20.45;10.98;;;-4.10;99.90;;;;;;2079056;28;20185;-62
2023/03/01 01:45:35;;;;;;;23.25;9.48;;;-4.10;99.90;;;;;;2084847;28;21074;-62
2023/03/01 01:47:12;;;;;;;21.00;11.65;;;-3.90;99.90;;;;;;2082459;28;20196;-62
2023/03/01 01:48:23;;;;;;;19.75;10.68;;;-3.90;99.90;;;;;;2077760;28;20199;-62
2023/03/01 01:49:38;;;;;;;21.90;10.77;;;-3.90;99.90;;;;;;2083263;28;20192;-62
2023/03/01 01:50:44;;;;;;;20.50;10.95;;;-3.80;99.90;;;;;;2082153;28;20229;-62
2023/03/01 01:52:29;;;;;;;18.27;10.40;;;-3.80;99.90;;;;;;2085844;28;20216;-62
2023/03/01 01:53:36;;;;;;;19.05;10.05;;;-3.80;99.90;;;;;;2082304;28;20196;-62
2023/03/01 01:54:58;;;;;;;21.45;10.45;;;-3.80;99.90;;;;;;2085628;28;20272;-61
2023/03/01 01:56:08;;;;;;;22.40;11.00;;;-3.80;99.90;;;;;;2083612;28;21008;-63
2023/03/01 01:57:26;;;;;;;19.92;11.20;;;-3.80;99.90;;;;;;2065772;28;20253;-61
2023/03/01 01:58:32;;;;;;;21.48;11.23;;;-3.90;99.90;;;;;;2075246;28;20186;-62
2023/03/01 01:59:39;;;;;;;17.85;10.57;;;-3.80;99.90;;;;;;2077220;28;20236;-62
2023/03/01 02:00:44;;;;;;;23.08;11.52;;;-3.90;99.90;;;;;;2070522;28;20286;-62
2023/03/01 02:01:52;;;;;;;18.80;10.77;;;-3.80;99.90;;;;;;2074602;28;20182;-62
2023/03/01 02:03:04;;;;;;;20.45;11.02;;;-3.70;99.90;;;;;;2061955;28;20575;-61
2023/03/01 02:04:09;;;;;;;20.17;9.85;;;-3.70;99.90;;;;;;2070713;28;20207;-61
2023/03/01 02:05:43;;;;;;;23.45;11.65;;;-3.60;99.90;;;;;;2077919;28;20209;-62
2023/03/01 02:06:58;;;;;;;20.48;10.18;;;-3.70;99.90;;;;;;2036942;29;20833;-62
2023/03/01 02:08:04;;;;;;;18.15;10.73;;;-3.60;99.90;;;;;;2070903;28;20184;-62
2023/03/01 02:09:14;;;;;;;18.65;10.15;;;-3.60;99.90;;;;;;2085417;28;20672;-62
2023/03/01 02:10:22;;;;;;;21.38;11.20;;;-3.60;99.90;;;;;;2083067;28;20186;-63
2023/03/01 02:11:31;;;;;;;19.10;11.13;;;-3.70;99.90;;;;;;2085509;28;20590;-62
2023/03/01 02:12:38;;;;;;;21.15;11.18;;;-3.60;99.90;;;;;;2082684;28;20643;-62
2023/03/01 02:13:44;;;;;;;19.70;10.55;;;-3.60;99.90;;;;;;2076698;28;20196;-62
2023/03/01 02:14:50;;;;;;;20.85;10.77;;;-3.60;99.90;;;;;;2066537;28;20184;-63
2023/03/01 02:15:56;;;;;;;19.60;11.35;;;-3.50;99.90;;;;;;2077769;28;20213;-62
2023/03/01 02:17:02;;;;;;;18.50;10.48;;;-3.50;99.90;;;;;;2085558;28;20241;-61
2023/03/01 02:18:05;;;;;;;18.80;10.25;;;-3.40;99.90;;;;;;2081577;28;20188;-62
2023/03/01 02:19:26;;;;;;;18.45;10.20;;;-3.40;99.90;;;;;;2084908;28;20175;-62
2023/03/01 02:20:48;;;;;;;20.77;11.68;;;-3.30;99.90;;;;;;2082451;28;20185;-62
2023/03/01 02:22:10;;;;;;;20.58;11.07;;;-3.30;99.90;;;;;;2082904;28;20901;-63
2023/03/01 02:23:17;;;;;;;20.45;11.45;;;-3.20;99.90;;;;;;2073965;28;20273;-62
2023/03/01 02:24:44;;;;;;;19.75;11.30;;;-3.20;99.90;;;;;;2078194;28;20176;-62
2023/03/01 02:26:45;;;;;;;22.15;11.57;;;-3.30;99.90;;;;;;2084578;28;20191;-63
2023/03/01 02:28:13;;;;;;;23.38;11.50;;;-3.20;99.90;;;;;;2065066;28;20736;-63
2023/03/01 02:29:20;;;;;;;21.65;10.23;;;-3.20;99.90;;;;;;2078641;28;20220;-62
2023/03/01 02:30:25;;;;;;;22.13;10.93;;;-3.10;99.90;;;;;;2084658;28;20273;-62
2023/03/01 02:31:42;;;;;;;22.08;11.20;;;-3.10;99.90;;;;;;2080991;28;20242;-63
2023/03/01 02:32:52;;;;;;;23.40;11.52;;;-3.00;99.90;;;;;;2085507;28;20198;-62
2023/03/01 02:33:58;;;;;;;18.13;11.38;;;-3.10;99.90;;;;;;2073319;28;20581;-62
2023/03/01 02:35:06;;;;;;;17.88;10.32;;;-3.10;99.90;;;;;;2077260;28;20247;-62
2023/03/01 02:36:20;;;;;;;24.67;12.38;;;-3.00;99.90;;;;;;2066065;28;20252;-62
2023/03/01 02:37:27;;;;;;;21.38;11.85;;;-3.00;99.90;;;;;;2076624;28;20197;-63
2023/03/01 02:38:32;;;;;;;22.55;11.80;;;-2.90;99.90;;;;;;2074918;28;20200;-63
2023/03/01 02:39:48;;;;;;;21.45;12.00;;;-2.90;99.90;;;;;;2085530;28;20193;-62
2023/03/01 02:40:51;;;;;;;24.80;12.48;;;-2.90;99.90;;;;;;2073257;28;20233;-63
2023/03/01 02:41:57;;;;;;;21.63;12.07;;;-2.80;99.90;;;;;;2069843;28;20196;-62
2023/03/01 02:43:04;;;;;;;22.23;12.35;;;-2.80;99.90;;;;;;2084615;28;20696;-61
2023/03/01 02:44:09;;;;;;;20.45;11.45;;;-2.70;99.90;;;;;;2077245;28;20598;-62
2023/03/01 02:45:14;;;;;;;18.73;10.82;;;-2.70;99.90;;;;;;2075251;28;20196;-62
2023/03/01 02:46:20;;;;;;;20.60;12.13;;;-2.70;99.90;;;;;;2085454;28;20283;-62
2023/03/01 02:47:23;;;;;;;25.50;11.35;;;-2.80;99.90;;;;;;2077086;28;20187;-63
2023/03/01 02:48:39;;;;;;;20.42;11.50;;;-2.70;99.90;;;;;;2078046;28;20218;-66
2023/03/01 02:49:45;;;;;;;20.63;11.02;;;-2.70;99.90;;;;;;2074203;28;20258;-62
2023/03/01 02:51:17;;;;;;;19.60;11.27;;;-2.60;99.90;;;;;;2080145;28;20617;-63
2023/03/01 02:52:43;;;;;;;22.58;11.98;;;-2.60;99.90;;;;;;2081778;28;20728;-62
2023/03/01 02:54:26;;;;;;;20.98;12.02;;;-2.50;99.90;;;;;;2073417;28;20253;-63
2023/03/01 02:55:31;;;;;;;24.58;11.88;;;-2.40;99.90;;;;;;2071588;28;20207;-63
2023/03/01 02:56:37;;;;;;;19.58;10.43;;;-2.40;99.90;;;;;;2082193;28;20190;-63
2023/03/01 02:57:45;;;;;;;23.27;12.68;;;-2.40;99.90;;;;;;2085004;28;20243;-63
2023/03/01 02:58:51;;;;;;;21.95;11.45;;;-2.30;99.90;;;;;;2085395;28;20198;-62
2023/03/01 03:00:06;;;;;;;22.25;11.75;;;-2.30;99.90;;;;;;2085952;28;20204;-62
2023/03/01 03:01:09;;;;;;;20.70;11.43;;;-2.30;99.90;;;;;;2076383;28;20284;-62
2023/03/01 03:02:35;;;;;;;20.85;11.55;;;-2.20;99.90;;;;;;2078184;28;20269;-62
2023/03/01 03:03:41;;;;;;;23.17;12.35;;;-2.20;99.90;;;;;;2082980;28;20191;-62
2023/03/01 03:04:47;;;;;;;19.48;10.95;;;-2.20;99.90;;;;;;2085265;28;20186;-62
2023/03/01 03:05:53;;;;;;;20.20;11.32;;;-2.30;99.90;;;;;;2081882;28;20184;-62
2023/03/01 03:06:59;;;;;;;22.20;11.80;;;-2.30;99.90;;;;;;2085437;28;20184;-62
2023/03/01 03:08:04;;;;;;;20.95;12.00;;;-2.30;99.90;;;;;;2084775;28;20594;-63
2023/03/01 03:09:10;;;;;;;19.48;10.40;;;-2.20;99.90;;;;;;2085108;28;20195;-62
2023/03/01 03:10:23;;;;;;;21.17;12.32;;;-2.20;99.90;;;;;;2085061;28;20186;-62
2023/03/01 03:11:30;;;;;;;19.77;11.13;;;-2.20;99.90;;;;;;2082417;28;20183;-62
2023/03/01 03:12:35;;;;;;;20.17;11.80;;;-2.20;99.90;;;;;;2085161;28;20189;-62
2023/03/01 03:13:47;;;;;;;23.88;13.52;;;-2.10;99.90;;;;;;2081486;28;20230;-62
2023/03/01 03:14:53;;;;;;;21.98;11.48;;;-2.20;99.90;;;;;;2085220;28;20769;-61
2023/03/01 03:15:59;;;;;;;22.45;12.57;;;-2.20;99.90;;;;;;2085464;28;20227;-62
2023/03/01 03:17:06;;;;;;;20.40;11.95;;;-2.10;99.90;;;;;;2085693;28;20216;-60
2023/03/01 03:18:15;;;;;;;23.27;12.50;;;-2.00;99.90;;;;;;2085443;28;20575;-62
2023/03/01 03:19:21;;;;;;;22.50;11.60;;;-1.90;99.90;;;;;;2082187;28;20560;-61
2023/03/01 03:20:28;;;;;;;24.13;12.52;;;-1.80;99.90;;;;;;2085203;28;20217;-62
2023/03/01 03:21:35;;;;;;;20.25;11.40;;;-1.80;99.90;;;;;;2073851;28;20192;-62
2023/03/01 03:22:40;;;;;;;20.80;12.30;;;-1.70;99.90;;;;;;2078346;28;20629;-61
2023/03/01 03:23:46;;;;;;;20.42;11.68;;;-1.80;99.90;;;;;;2085889;28;20314;-62
2023/03/01 03:24:52;;;;;;;21.15;11.70;;;-1.80;99.90;;;;;;2081830;28;20184;-62
2023/03/01 03:25:58;;;;;;;19.20;11.05;;;-1.80;99.90;;;;;;2085002;28;20187;-61
2023/03/01 03:27:07;;;;;;;19.67;11.00;;;-1.90;99.90;;;;;;2084987;28;20584;-62
2023/03/01 03:28:09;;;;;;;20.50;11.25;;;-1.90;99.90;;;;;;2084926;28;20196;-61
2023/03/01 03:29:15;;;;;;;22.65;11.85;;;-1.90;99.90;;;;;;2085633;28;20190;-63
2023/03/01 03:30:21;;;;;;;20.55;11.15;;;-2.00;99.90;;;;;;2085148;28;20184;-61
2023/03/01 03:31:27;;;;;;;23.33;13.13;;;-1.90;99.90;;;;;;2085125;28;20764;-61
2023/03/01 03:32:33;;;;;;;20.55;12.00;;;-1.80;99.90;;;;;;2085029;28;20332;-60
2023/03/01 03:33:39;;;;;;;20.40;11.52;;;-1.80;99.90;;;;;;2081713;28;20191;-61
2023/03/01 03:34:44;;;;;;;19.08;11.02;;;-1.70;99.90;;;;;;2085059;28;20198;-64
2023/03/01 03:35:50;;;;;;;20.92;11.13;;;-1.80;99.90;;;;;;2085259;28;20656;-63
2023/03/01 03:36:59;;;;;;;21.30;11.80;;;-1.90;99.90;;;;;;2081609;28;20245;-62
2023/03/01 03:38:15;;;;;;;20.85;11.90;;;-1.90;99.90;;;;;;2076473;28;20715;-60
2023/03/01 03:39:20;;;;;;;19.45;11.13;;;-1.80;99.90;;;;;;2080327;28;20270;-62
2023/03/01 03:40:32;;;;;;;22.55;11.77;;;-1.80;99.90;;;;;;2085653;28;20191;-62
2023/03/01 03:41:37;;;;;;;20.90;11.15;;;-1.90;99.90;;;;;;2085882;28;20193;-62
2023/03/01 03:42:43;;;;;;;21.45;11.25;;;-1.90;99.90;;;;;;2085825;28;20278;-62
2023/03/01 03:43:49;;;;;;;20.45;11.57;;;-1.90;99.90;;;;;;2081445;28;20728;-63
2023/03/01 03:44:55;;;;;;;20.13;12.00;;;-1.80;99.90;;;;;;2084894;28;20194;-63
2023/03/01 03:46:05;;;;;;;18.58;11.70;;;-1.80;99.90;;;;;;2085116;28;20283;-63
2023/03/01 03:47:09;;;;;;;21.20;11.88;;;-1.80;99.90;;;;;;2081876;28;20234;-63
2023/03/01 03:48:16;;;;;;;22.77;12.07;;;-1.80;99.90;;;;;;2084724;28;20227;-63
2023/03/01 03:49:22;;;;;;;20.48;11.23;;;-1.80;99.90;;;;;;2085395;28;20219;-61
2023/03/01 03:50:28;;;;;;;22.40;11.57;;;-1.80;99.90;;;;;;2085602;28;20192;-62
2023/03/01 03:51:34;;;;;;;20.65;12.20;;;-1.80;99.90;;;;;;2085497;28;20945;-62
2023/03/01 03:52:40;;;;;;;18.63;11.43;;;-1.80;99.90;;;;;;2081754;28;20225;-62
2023/03/01 03:53:46;;;;;;;24.58;12.30;;;-1.70;99.90;;;;;;2084906;28;20192;-62
2023/03/01 03:54:51;;;;;;;20.38;11.02;;;-1.70;99.90;;;;;;2084972;28;20239;-63
2023/03/01 03:55:58;;;;;;;24.45;12.20;;;-1.70;99.90;;;;;;2085251;28;20198;-62
2023/03/01 03:57:03;;;;;;;22.58;11.65;;;-1.70;99.90;;;;;;2076529;28;20231;-61
2023/03/01 03:58:07;;;;;;;19.17;11.33;;;-1.90;99.90;;;;;;2076337;28;20991;-62
2023/03/01 03:59:11;;;;;;;23.67;12.13;;;-1.90;99.90;;;;;;2079070;28;20270;-63
2023/03/01 04:00:20;;;;;;;21.95;13.10;;;-1.90;99.90;;;;;;2087277;28;20187;-60
2023/03/01 04:01:26;;;;;;;22.80;11.45;;;-1.90;99.90;;;;;;2085450;28;20187;-62
2023/03/01 04:02:31;;;;;;;23.92;12.52;;;-1.90;99.90;;;;;;2085422;28;20222;-62
2023/03/01 04:03:37;;;;;;;20.48;11.95;;;-1.90;99.90;;;;;;2085454;28;20187;-62
2023/03/01 04:04:43;;;;;;;19.55;12.13;;;-2.00;99.90;;;;;;2081673;28;20210;-62
2023/03/01 04:05:50;;;;;;;21.10;11.77;;;-2.00;99.90;;;;;;2084770;28;20191;-62
2023/03/01 04:06:56;;;;;;;21.05;11.65;;;-2.00;99.90;;;;;;2077536;28;20223;-62
2023/03/01 04:08:02;;;;;;;22.48;11.95;;;-2.00;99.90;;;;;;2085129;28;20184;-61
2023/03/01 04:09:04;;;;;;;21.92;12.10;;;-2.10;99.90;;;;;;2085489;28;20275;-62
2023/03/01 04:10:08;;;;;;;18.73;10.80;;;-2.00;99.90;;;;;;2085497;28;20656;-62
2023/03/01 04:11:31;;;;;;;22.90;12.60;;;-1.90;99.90;;;;;;2072069;28;20205;-62
2023/03/01 04:12:36;;;;;;;23.33;12.80;;;-2.00;99.90;;;;;;2068215;28;20187;-62
2023/03/01 04:13:42;;;;;;;21.50;11.65;;;-1.90;99.90;;;;;;2080173;28;20220;-62
2023/03/01 04:14:47;;;;;;;21.08;11.90;;;-1.90;99.90;;;;;;2084895;28;20211;-62
2023/03/01 04:15:54;;;;;;;26.30;13.00;;;-2.00;99.90;;;;;;2083826;28;20286;-62
2023/03/01 04:16:59;;;;;;;20.55;11.90;;;-2.00;99.90;;;;;;2084907;28;20691;-62
2023/03/01 04:18:05;;;;;;;23.38;12.77;;;-1.90;99.90;;;;;;2084520;28;20215;-62
2023/03/01 04:19:09;;;;;;;22.10;11.98;;;-1.80;99.90;;;;;;2083327;28;20181;-62
2023/03/01 04:20:24;;;;;;;23.38;12.80;;;-1.90;99.90;;;;;;2085432;28;20206;-62
2023/03/01 04:21:30;;;;;;;26.23;13.27;;;-1.80;99.90;;;;;;2076138;28;20214;-62
2023/03/01 04:22:35;;;;;;;25.08;13.13;;;-1.80;99.90;;;;;;2077973;28;20188;-62
2023/03/01 04:23:41;;;;;;;22.00;12.35;;;-1.70;99.90;;;;;;2080999;28;20202;-62
2023/03/01 04:24:46;;;;;;;21.83;12.25;;;-1.80;99.90;;;;;;2084870;28;20197;-62
2023/03/01 04:25:54;;;;;;;22.10;12.48;;;-1.70;99.90;;;;;;2083521;28;20666;-61
2023/03/01 04:27:00;;;;;;;26.30;12.25;;;-1.70;99.90;;;;;;2075015;28;20259;-62
2023/03/01 04:28:04;;;;;;;22.38;12.85;;;-1.60;99.90;;;;;;2069108;28;20224;-61
2023/03/01 04:29:10;;;;;;;24.80;12.50;;;-1.50;99.90;;;;;;2077642;28;20190;-60
2023/03/01 04:30:15;;;;;;;22.55;12.20;;;-1.50;99.90;;;;;;2081637;28;20831;-62
2023/03/01 04:31:21;;;;;;;24.20;12.77;;;-1.60;99.90;;;;;;2084765;28;20237;-62
2023/03/01 04:32:26;;;;;;;20.13;11.70;;;-1.70;99.90;;;;;;2084996;28;20196;-62
2023/03/01 04:33:32;;;;;;;22.90;12.35;;;-1.70;99.90;;;;;;2085437;28;20183;-62
2023/03/01 04:34:37;;;;;;;22.83;12.88;;;-1.70;99.90;;;;;;2085263;28;20192;-62
2023/03/01 04:35:43;;;;;;;20.48;11.85;;;-1.80;99.90;;;;;;2084997;28;20283;-62
2023/03/01 04:36:48;;;;;;;21.95;12.85;;;-1.70;99.90;;;;;;2084445;28;20235;-62
2023/03/01 04:37:54;;;;;;;23.75;12.38;;;-1.70;99.90;;;;;;2084489;28;20176;-62
2023/03/01 04:38:59;;;;;;;21.23;13.05;;;-1.60;99.90;;;;;;2081035;28;20250;-62
2023/03/01 04:40:12;;;;;;;23.77;12.85;;;-1.70;99.90;;;;;;2076166;28;20199;-63
2023/03/01 04:41:23;;;;;;;23.27;13.25;;;-1.60;99.90;;;;;;2075910;28;20183;-63
2023/03/01 04:42:24;;;;;;;24.55;13.07;;;-1.60;99.90;;;;;;2086217;28;20238;-62
2023/03/01 04:43:30;;;;;;;26.55;13.13;;;-1.50;99.90;;;;;;2086154;28;20202;-62
2023/03/01 04:44:35;;;;;;;22.10;12.15;;;-1.60;99.90;;;;;;2082814;28;20217;-63
2023/03/01 04:45:40;;;;;;;26.10;13.95;;;-1.70;99.90;;;;;;2086184;28;20184;-62
2023/03/01 04:46:49;;;;;;;27.90;12.88;;;-1.80;99.90;;;;;;2086204;28;20200;-62
2023/03/01 04:47:54;;;;;;;22.95;12.90;;;-1.90;99.90;;;;;;2083382;28;20238;-63
2023/03/01 04:48:59;;;;;;;22.58;12.65;;;-1.80;99.90;;;;;;2077362;28;20233;-62
2023/03/01 04:50:05;;;;;;;24.67;13.75;;;-1.80;99.90;;;;;;2062575;28;20209;-63
2023/03/01 04:51:13;;;;;;;26.92;13.63;;;-1.80;99.90;;;;;;2070374;28;20212;-63
2023/03/01 04:52:15;;;;;;;28.98;14.57;;;-1.70;99.90;;;;;;2084790;28;20200;-63
2023/03/01 04:53:20;;;;;;;23.00;12.85;;;-1.80;99.90;;;;;;2082223;28;20207;-63
2023/03/01 04:54:26;;;;;;;23.45;13.02;;;-1.70;99.90;;;;;;2077443;28;20201;-62
2023/03/01 04:55:31;;;;;;;23.70;12.85;;;-1.80;99.90;;;;;;2079069;28;20666;-63
2023/03/01 04:56:37;;;;;;;24.33;13.60;;;-1.80;99.90;;;;;;2086466;28;20700;-63
2023/03/01 04:57:42;;;;;;;22.13;12.02;;;-1.80;99.90;;;;;;2085661;28;20586;-63
2023/03/01 04:58:48;;;;;;;28.90;13.20;;;-1.70;99.90;;;;;;2085902;28;20189;-62
2023/03/01 04:59:53;;;;;;;23.85;12.23;;;-1.80;99.90;;;;;;2086039;28;20648;-62
2023/03/01 05:00:59;;;;;;;23.23;13.40;;;-1.70;99.90;;;;;;2086308;28;20207;-63
2023/03/01 05:02:04;;;;;;;24.55;13.23;;;-1.70;99.90;;;;;;2085954;28;20177;-62
2023/03/01 05:03:09;;;;;;;23.50;12.30;;;-1.60;99.90;;;;;;2082889;28;20358;-63
2023/03/01 05:04:14;;;;;;;26.40;14.07;;;-1.60;99.90;;;;;;2086106;28;20199;-62
2023/03/01 05:05:25;;;;;;;26.23;13.27;;;-1.70;99.90;;;;;;2085990;28;20196;-62
2023/03/01 05:06:32;;;;;;;24.88;12.25;;;-1.70;99.90;;;;;;2084020;28;20674;-63
2023/03/01 05:07:36;;;;;;;24.75;13.30;;;-1.70;99.90;;;;;;2085890;28;20192;-62
2023/03/01 05:08:42;;;;;;;24.08;13.18;;;-1.70;99.90;;;;;;2082854;28;20241;-62
2023/03/01 05:09:47;;;;;;;24.02;12.77;;;-1.70;99.90;;;;;;2085926;28;20184;-62
2023/03/01 05:10:53;;;;;;;23.85;12.73;;;-1.70;99.90;;;;;;2086253;28;20212;-62
2023/03/01 05:11:58;;;;;;;24.88;13.23;;;-1.80;99.90;;;;;;2082903;28;20195;-62
2023/03/01 05:13:04;;;;;;;23.05;12.02;;;-1.80;99.90;;;;;;2085961;28;20172;-63
2023/03/01 05:14:09;;;;;;;23.20;13.23;;;-1.80;99.90;;;;;;2086171;28;20218;-63
2023/03/01 05:15:14;;;;;;;23.38;12.70;;;-1.70;99.90;;;;;;2086425;28;20192;-63
2023/03/01 05:16:20;;;;;;;28.08;13.15;;;-1.70;99.90;;;;;;2086435;28;20231;-63
2023/03/01 05:17:22;;;;;;;20.95;12.73;;;-1.70;99.90;;;;;;2086631;28;20215;-62
2023/03/01 05:18:30;;;;;;;21.52;12.70;;;-1.70;99.90;;;;;;2082560;28;20175;-62
2023/03/01 05:19:34;;;;;;;22.75;12.77;;;-1.60;99.90;;;;;;2086035;28;20193;-63
2023/03/01 05:20:39;;;;;;;24.88;13.27;;;-1.60;99.90;;;;;;2086048;28;20200;-65
2023/03/01 05:23:09;;;;;;;23.85;12.88;;;-1.60;99.90;;;;;;2078549;28;20677;-63
2023/03/01 05:24:14;;;;;;;22.58;12.13;;;-1.50;99.90;;;;;;2085838;28;20200;-63
2023/03/01 05:25:17;;;;;;;22.95;12.25;;;-1.50;99.90;;;;;;2086093;28;20717;-63
2023/03/01 05:26:27;;;;;;;25.27;13.30;;;-1.40;99.90;;;;;;2086458;28;20247;-62
2023/03/01 05:27:33;;;;;;;23.38;13.00;;;-1.40;99.90;;;;;;2086560;28;20195;-63
2023/03/01 05:28:39;;;;;;;25.42;13.23;;;-1.50;99.90;;;;;;2082346;28;20212;-62
2023/03/01 05:29:43;;;;;;;22.48;12.68;;;-1.50;99.90;;;;;;2085815;28;20194;-62
2023/03/01 05:30:51;;;;;;;21.92;12.68;;;-1.40;99.90;;;;;;2085651;28;20220;-62
2023/03/01 05:32:02;;;;;;;29.65;13.82;;;-1.40;99.90;;;;;;2086425;28;20270;-63
2023/03/01 05:33:03;;;;;;;23.80;12.88;;;-1.60;99.90;;;;;;2077367;28;20226;-62
2023/03/01 05:34:06;;;;;;;21.63;12.68;;;-1.60;99.90;;;;;;2077296;28;20200;-63
2023/03/01 05:35:15;;;;;;;26.75;14.00;;;-1.50;99.90;;;;;;2085018;28;20187;-62
2023/03/01 05:36:18;;;;;;;25.08;13.30;;;-1.50;99.90;;;;;;2085391;28;20185;-62
2023/03/01 05:37:24;;;;;;;23.80;12.30;;;-1.50;99.90;;;;;;2081898;28;20254;-62
2023/03/01 05:38:29;;;;;;;25.08;12.60;;;-1.40;99.90;;;;;;2085639;28;20199;-63
2023/03/01 05:39:35;;;;;;;22.08;12.60;;;-1.30;99.90;;;;;;2084974;28;20276;-62
2023/03/01 05:40:45;;;;;;;24.83;13.13;;;-1.30;99.90;;;;;;2073488;28;20218;-62
2023/03/01 05:41:46;;;;;;;27.00;13.60;;;-1.30;99.90;;;;;;2070096;28;20189;-62
2023/03/01 05:42:56;;;;;;;49.30;25.27;;;-1.30;99.90;;;;;;2077289;28;20208;-62
2023/03/01 05:44:01;;;;;;;59.72;28.75;;;-1.30;99.90;;;;;;2083015;28;20187;-62
2023/03/01 05:45:09;;;;;;;27.30;14.68;;;-1.30;99.90;;;;;;2085530;28;20184;-62